Weather at Don Mueang International Airport

Public forecast

Using degrees Celsius for public forecast. Weather courtesy of forecast.io.

Current aviation weather report (METAR) for Don Mueang International Airport

Report is more than 6 hours old.

2022/11/14 15:30 (retrieved 2 years ago)

VTBD 141530Z 28003KT 210V010 9999 FEW020 26/26 Q1012 NOSIG

Aviation forecast (TAF) for Don Mueang International Airport

Forecast is more than 12 hours old.

2023/02/22 18:36 (retrieved 1 year ago)

TAF VTBD 221700Z 2218/2324 07005KT 9999 FEW030 BECMG 2303/2305 34005KT